Pagina principală
METAR-TAF:

METAR-TAF

Aeroporturi :

Gilmer Municipal Airport (Fox Stephens Field)

Gilmer, Texas, Statele Unite ale Americii

Latitudine: 32-41-56N, longitudine: 094-56-55W, elevație: 127 m

Observații meteo curente

Raportul a fost făcut în urmă cu 16 de minute, la 20:55 UTC
Vânt 4 kt de la Sud-vest
Temperatură 34°C
Umiditate 39%
Presiune 1016 hPa
Vizibilitate: 16.1 km
Cer senin

METAR: KJXI 222055Z AUTO 23004KT 10SM CLR 34/18 A3000 RMK AO2 T03400177

Ora: 16:11 (21:11 UTC)


TAF: lipsă

Observații și prognoze meteo pentru peste 4.000 de aeroporturi (rapoarte METAR și TAF).

Stațiile disponibile sunt reprezentate pe hartă prin puncte galbene și roșii.

Țineți indicatorul mouse-ului pe punctul dorit pentru a vedea denumirea stației.

Apoi, faceți clic pentru a vedea observațiile și prognozele meteorologice.

Pentru a schimba harta: Pentru mărire, faceți clic pe butoanele verzi cu cruce neagră; pentru micșorare, pe butonul verde cu o liniuță; pentru hărți învecinate, pe săgețile verzi.


METAR-TAF: